sensor_id;sensor_type;location;lat;lon;timestamp;temperature;humidity
14210;DHT22;7188;56.070;12.698;2022-08-02T00:01:26;14.30;99.90
14210;DHT22;7188;56.070;12.698;2022-08-02T00:03:52;14.30;99.90
14210;DHT22;7188;56.070;12.698;2022-08-02T00:06:17;14.30;99.90
14210;DHT22;7188;56.070;12.698;2022-08-02T00:08:43;14.40;99.90
14210;DHT22;7188;56.070;12.698;2022-08-02T00:11:09;14.40;99.90
14210;DHT22;7188;56.070;12.698;2022-08-02T00:13:35;14.40;99.90
14210;DHT22;7188;56.070;12.698;2022-08-02T00:16:01;14.30;99.90
14210;DHT22;7188;56.070;12.698;2022-08-02T00:18:27;14.30;99.90
14210;DHT22;7188;56.070;12.698;2022-08-02T00:20:53;14.30;99.90
14210;DHT22;7188;56.070;12.698;2022-08-02T00:23:18;14.20;99.90
14210;DHT22;7188;56.070;12.698;2022-08-02T00:25:44;14.20;99.90
14210;DHT22;7188;56.070;12.698;2022-08-02T00:28:10;14.10;99.90
14210;DHT22;7188;56.070;12.698;2022-08-02T00:30:36;14.10;99.90
14210;DHT22;7188;56.070;12.698;2022-08-02T00:33:02;14.10;99.90
14210;DHT22;7188;56.070;12.698;2022-08-02T00:35:29;14.00;99.90
14210;DHT22;7188;56.070;12.698;2022-08-02T00:37:55;14.00;99.90
14210;DHT22;7188;56.070;12.698;2022-08-02T00:40:22;13.90;99.90
14210;DHT22;7188;56.070;12.698;2022-08-02T00:43:08;14.00;99.90
14210;DHT22;7188;56.070;12.698;2022-08-02T00:45:36;14.00;99.90
14210;DHT22;7188;56.070;12.698;2022-08-02T00:48:04;13.90;99.90
14210;DHT22;7188;56.070;12.698;2022-08-02T00:50:30;13.90;99.90
14210;DHT22;7188;56.070;12.698;2022-08-02T00:52:56;13.90;99.90
14210;DHT22;7188;56.070;12.698;2022-08-02T00:55:22;13.90;99.90
14210;DHT22;7188;56.070;12.698;2022-08-02T00:57:48;13.80;99.90
14210;DHT22;7188;56.070;12.698;2022-08-02T01:00:14;13.90;99.90
14210;DHT22;7188;56.070;12.698;2022-08-02T01:02:43;13.80;99.90
14210;DHT22;7188;56.070;12.698;2022-08-02T01:05:09;13.80;99.90
14210;DHT22;7188;56.070;12.698;2022-08-02T01:07:35;13.80;99.90
14210;DHT22;7188;56.070;12.698;2022-08-02T01:10:01;13.70;99.90
14210;DHT22;7188;56.070;12.698;2022-08-02T01:12:27;13.70;99.90
14210;DHT22;7188;56.070;12.698;2022-08-02T01:14:56;13.70;99.90
14210;DHT22;7188;56.070;12.698;2022-08-02T01:17:53;13.70;99.90
14210;DHT22;7188;56.070;12.698;2022-08-02T01:23:01;13.70;99.90
14210;DHT22;7188;56.070;12.698;2022-08-02T01:28:22;13.70;99.90
14210;DHT22;7188;56.070;12.698;2022-08-02T01:30:56;13.70;99.90
14210;DHT22;7188;56.070;12.698;2022-08-02T01:33:26;13.70;99.90
14210;DHT22;7188;56.070;12.698;2022-08-02T01:35:56;13.70;99.90
14210;DHT22;7188;56.070;12.698;2022-08-02T01:38:34;13.70;99.90
14210;DHT22;7188;56.070;12.698;2022-08-02T01:41:03;13.70;99.90
14210;DHT22;7188;56.070;12.698;2022-08-02T01:43:31;13.60;99.90
14210;DHT22;7188;56.070;12.698;2022-08-02T01:45:59;13.60;99.90
14210;DHT22;7188;56.070;12.698;2022-08-02T01:48:26;13.60;99.90
14210;DHT22;7188;56.070;12.698;2022-08-02T01:50:53;13.50;99.90
14210;DHT22;7188;56.070;12.698;2022-08-02T01:53:20;13.60;99.90
14210;DHT22;7188;56.070;12.698;2022-08-02T01:55:49;13.60;99.90
14210;DHT22;7188;56.070;12.698;2022-08-02T01:58:18;13.70;99.90
14210;DHT22;7188;56.070;12.698;2022-08-02T02:00:46;13.70;99.90
14210;DHT22;7188;56.070;12.698;2022-08-02T02:03:22;13.60;99.90
14210;DHT22;7188;56.070;12.698;2022-08-02T02:05:50;13.60;99.90
14210;DHT22;7188;56.070;12.698;2022-08-02T02:08:22;13.60;99.90
14210;DHT22;7188;56.070;12.698;2022-08-02T02:10:49;13.60;99.90
14210;DHT22;7188;56.070;12.698;2022-08-02T02:13:17;13.70;99.90
14210;DHT22;7188;56.070;12.698;2022-08-02T02:15:47;13.70;99.90
14210;DHT22;7188;56.070;12.698;2022-08-02T02:18:17;13.70;99.90
14210;DHT22;7188;56.070;12.698;2022-08-02T02:20:45;13.50;99.90
14210;DHT22;7188;56.070;12.698;2022-08-02T02:23:12;13.50;99.90
14210;DHT22;7188;56.070;12.698;2022-08-02T02:25:40;13.50;99.90
14210;DHT22;7188;56.070;12.698;2022-08-02T02:28:12;13.50;99.90
14210;DHT22;7188;56.070;12.698;2022-08-02T02:30:42;13.60;99.90
14210;DHT22;7188;56.070;12.698;2022-08-02T02:33:08;13.70;99.90
14210;DHT22;7188;56.070;12.698;2022-08-02T02:35:36;13.60;99.90
14210;DHT22;7188;56.070;12.698;2022-08-02T02:38:07;13.60;99.90
14210;DHT22;7188;56.070;12.698;2022-08-02T02:40:37;13.60;99.90
14210;DHT22;7188;56.070;12.698;2022-08-02T02:43:04;13.60;99.90
14210;DHT22;7188;56.070;12.698;2022-08-02T02:45:32;13.70;99.90
14210;DHT22;7188;56.070;12.698;2022-08-02T02:47:59;13.70;99.90
14210;DHT22;7188;56.070;12.698;2022-08-02T02:50:26;13.70;99.90
14210;DHT22;7188;56.070;12.698;2022-08-02T02:52:52;13.60;99.90
14210;DHT22;7188;56.070;12.698;2022-08-02T02:55:19;13.70;99.90
14210;DHT22;7188;56.070;12.698;2022-08-02T02:57:46;13.60;99.90
14210;DHT22;7188;56.070;12.698;2022-08-02T03:00:13;13.60;99.90
14210;DHT22;7188;56.070;12.698;2022-08-02T03:02:41;13.70;99.90
14210;DHT22;7188;56.070;12.698;2022-08-02T03:05:08;13.60;99.90
14210;DHT22;7188;56.070;12.698;2022-08-02T03:07:34;13.70;99.90
14210;DHT22;7188;56.070;12.698;2022-08-02T03:10:02;13.70;99.90
14210;DHT22;7188;56.070;12.698;2022-08-02T03:12:28;13.70;99.90
14210;DHT22;7188;56.070;12.698;2022-08-02T03:14:54;13.70;99.90
14210;DHT22;7188;56.070;12.698;2022-08-02T03:17:21;13.60;99.90
14210;DHT22;7188;56.070;12.698;2022-08-02T03:19:47;13.60;99.90
14210;DHT22;7188;56.070;12.698;2022-08-02T03:22:13;13.60;99.90
14210;DHT22;7188;56.070;12.698;2022-08-02T03:24:39;13.60;99.90
14210;DHT22;7188;56.070;12.698;2022-08-02T03:27:04;13.70;99.90
14210;DHT22;7188;56.070;12.698;2022-08-02T03:29:30;13.70;99.90
14210;DHT22;7188;56.070;12.698;2022-08-02T03:31:56;13.70;99.90
14210;DHT22;7188;56.070;12.698;2022-08-02T03:34:22;13.60;99.90
14210;DHT22;7188;56.070;12.698;2022-08-02T03:36:53;13.50;99.90
14210;DHT22;7188;56.070;12.698;2022-08-02T03:39:19;13.50;99.90
14210;DHT22;7188;56.070;12.698;2022-08-02T03:41:47;13.50;99.90
14210;DHT22;7188;56.070;12.698;2022-08-02T03:44:13;13.60;99.90
14210;DHT22;7188;56.070;12.698;2022-08-02T03:46:40;13.60;99.90
14210;DHT22;7188;56.070;12.698;2022-08-02T03:49:08;13.60;99.90
14210;DHT22;7188;56.070;12.698;2022-08-02T03:51:35;13.70;99.90
14210;DHT22;7188;56.070;12.698;2022-08-02T03:54:02;13.70;99.90
14210;DHT22;7188;56.070;12.698;2022-08-02T03:56:43;13.70;99.90
14210;DHT22;7188;56.070;12.698;2022-08-02T03:59:21;13.70;99.90
14210;DHT22;7188;56.070;12.698;2022-08-02T04:01:47;13.80;99.90
14210;DHT22;7188;56.070;12.698;2022-08-02T04:04:12;13.80;99.90
14210;DHT22;7188;56.070;12.698;2022-08-02T04:06:38;13.70;99.90
14210;DHT22;7188;56.070;12.698;2022-08-02T04:09:04;13.80;99.90
14210;DHT22;7188;56.070;12.698;2022-08-02T04:11:30;13.90;99.90
14210;DHT22;7188;56.070;12.698;2022-08-02T04:13:57;14.30;99.90
14210;DHT22;7188;56.070;12.698;2022-08-02T04:16:30;14.80;99.90
14210;DHT22;7188;56.070;12.698;2022-08-02T04:19:01;15.20;99.90
14210;DHT22;7188;56.070;12.698;2022-08-02T04:21:31;15.50;1.00
14210;DHT22;7188;56.070;12.698;2022-08-02T04:23:59;15.60;1.00
14210;DHT22;7188;56.070;12.698;2022-08-02T04:26:27;15.70;1.00
14210;DHT22;7188;56.070;12.698;2022-08-02T04:28:53;15.70;1.00
14210;DHT22;7188;56.070;12.698;2022-08-02T04:31:20;15.80;99.90
14210;DHT22;7188;56.070;12.698;2022-08-02T04:33:45;15.80;99.90
14210;DHT22;7188;56.070;12.698;2022-08-02T04:36:11;15.80;99.90
14210;DHT22;7188;56.070;12.698;2022-08-02T04:38:40;15.90;99.90
14210;DHT22;7188;56.070;12.698;2022-08-02T04:41:06;15.90;99.90
14210;DHT22;7188;56.070;12.698;2022-08-02T04:43:32;15.90;99.90
14210;DHT22;7188;56.070;12.698;2022-08-02T04:45:57;15.90;99.90
14210;DHT22;7188;56.070;12.698;2022-08-02T04:48:23;15.90;99.90
14210;DHT22;7188;56.070;12.698;2022-08-02T04:50:49;15.90;99.90
14210;DHT22;7188;56.070;12.698;2022-08-02T04:53:15;15.90;99.90
14210;DHT22;7188;56.070;12.698;2022-08-02T04:55:41;15.90;99.90
14210;DHT22;7188;56.070;12.698;2022-08-02T04:58:07;15.90;99.90
14210;DHT22;7188;56.070;12.698;2022-08-02T05:00:33;16.00;1.00
14210;DHT22;7188;56.070;12.698;2022-08-02T05:02:59;16.10;99.90
14210;DHT22;7188;56.070;12.698;2022-08-02T05:05:26;16.30;1.00
14210;DHT22;7188;56.070;12.698;2022-08-02T05:07:52;16.40;1.00
14210;DHT22;7188;56.070;12.698;2022-08-02T05:10:19;16.50;1.00
14210;DHT22;7188;56.070;12.698;2022-08-02T05:12:45;16.80;99.90
14210;DHT22;7188;56.070;12.698;2022-08-02T05:15:12;16.90;1.00
14210;DHT22;7188;56.070;12.698;2022-08-02T05:17:41;17.00;1.00
14210;DHT22;7188;56.070;12.698;2022-08-02T05:20:07;17.00;1.00
14210;DHT22;7188;56.070;12.698;2022-08-02T05:22:34;16.90;1.00
14210;DHT22;7188;56.070;12.698;2022-08-02T05:25:00;16.80;99.90
14210;DHT22;7188;56.070;12.698;2022-08-02T05:27:25;16.80;99.90
14210;DHT22;7188;56.070;12.698;2022-08-02T05:29:51;16.90;1.00
14210;DHT22;7188;56.070;12.698;2022-08-02T05:32:19;17.00;99.90
14210;DHT22;7188;56.070;12.698;2022-08-02T05:34:44;17.20;1.00
14210;DHT22;7188;56.070;12.698;2022-08-02T05:37:10;17.30;1.00
14210;DHT22;7188;56.070;12.698;2022-08-02T05:39:36;17.30;56.10
14210;DHT22;7188;56.070;12.698;2022-08-02T05:42:02;17.30;99.90
14210;DHT22;7188;56.070;12.698;2022-08-02T05:44:27;17.20;99.90
14210;DHT22;7188;56.070;12.698;2022-08-02T05:46:53;17.30;99.90
14210;DHT22;7188;56.070;12.698;2022-08-02T05:49:19;17.10;99.90
14210;DHT22;7188;56.070;12.698;2022-08-02T05:55:23;17.10;99.90
14210;DHT22;7188;56.070;12.698;2022-08-02T05:57:51;17.00;1.00
14210;DHT22;7188;56.070;12.698;2022-08-02T06:00:22;16.90;99.90
14210;DHT22;7188;56.070;12.698;2022-08-02T06:05:33;16.90;99.90
14210;DHT22;7188;56.070;12.698;2022-08-02T06:07:59;17.00;99.90
14210;DHT22;7188;56.070;12.698;2022-08-02T06:10:26;17.10;1.00
14210;DHT22;7188;56.070;12.698;2022-08-02T06:15:39;17.30;99.90
14210;DHT22;7188;56.070;12.698;2022-08-02T06:18:06;17.30;1.00
14210;DHT22;7188;56.070;12.698;2022-08-02T06:20:33;17.60;1.00
14210;DHT22;7188;56.070;12.698;2022-08-02T06:23:06;17.80;1.00
14210;DHT22;7188;56.070;12.698;2022-08-02T06:25:35;17.80;1.00
14210;DHT22;7188;56.070;12.698;2022-08-02T06:28:03;17.70;99.90
14210;DHT22;7188;56.070;12.698;2022-08-02T06:30:30;17.70;1.00
14210;DHT22;7188;56.070;12.698;2022-08-02T06:32:57;17.80;99.90
14210;DHT22;7188;56.070;12.698;2022-08-02T06:35:45;17.90;1.00
14210;DHT22;7188;56.070;12.698;2022-08-02T06:38:17;18.10;99.90
14210;DHT22;7188;56.070;12.698;2022-08-02T06:40:54;18.20;99.90
14210;DHT22;7188;56.070;12.698;2022-08-02T06:43:22;18.30;1.00
14210;DHT22;7188;56.070;12.698;2022-08-02T06:45:50;18.20;80.30
14210;DHT22;7188;56.070;12.698;2022-08-02T06:48:15;18.30;99.90
14210;DHT22;7188;56.070;12.698;2022-08-02T06:50:41;18.30;99.90
14210;DHT22;7188;56.070;12.698;2022-08-02T06:53:09;18.30;1.00
14210;DHT22;7188;56.070;12.698;2022-08-02T06:55:35;18.20;1.00
14210;DHT22;7188;56.070;12.698;2022-08-02T06:58:01;18.10;99.90
14210;DHT22;7188;56.070;12.698;2022-08-02T07:00:28;18.10;99.90
14210;DHT22;7188;56.070;12.698;2022-08-02T07:02:54;18.20;99.90
14210;DHT22;7188;56.070;12.698;2022-08-02T07:05:20;18.30;1.00
14210;DHT22;7188;56.070;12.698;2022-08-02T07:07:46;18.40;1.00
14210;DHT22;7188;56.070;12.698;2022-08-02T07:10:13;18.50;1.00
14210;DHT22;7188;56.070;12.698;2022-08-02T07:12:39;18.70;99.90
14210;DHT22;7188;56.070;12.698;2022-08-02T07:15:06;18.70;99.90
14210;DHT22;7188;56.070;12.698;2022-08-02T07:17:33;18.60;99.90
14210;DHT22;7188;56.070;12.698;2022-08-02T07:19:59;18.60;99.90
14210;DHT22;7188;56.070;12.698;2022-08-02T07:22:26;18.70;99.90
14210;DHT22;7188;56.070;12.698;2022-08-02T07:24:56;18.70;99.90
14210;DHT22;7188;56.070;12.698;2022-08-02T07:27:22;18.70;99.90
14210;DHT22;7188;56.070;12.698;2022-08-02T07:29:48;18.70;99.90
14210;DHT22;7188;56.070;12.698;2022-08-02T07:32:19;18.70;99.90
14210;DHT22;7188;56.070;12.698;2022-08-02T07:34:46;18.70;99.90
14210;DHT22;7188;56.070;12.698;2022-08-02T07:37:12;18.70;99.90
14210;DHT22;7188;56.070;12.698;2022-08-02T07:39:38;18.70;99.90
14210;DHT22;7188;56.070;12.698;2022-08-02T07:42:03;18.70;99.90
14210;DHT22;7188;56.070;12.698;2022-08-02T07:44:29;18.80;99.90
14210;DHT22;7188;56.070;12.698;2022-08-02T07:47:00;18.70;99.90
14210;DHT22;7188;56.070;12.698;2022-08-02T07:49:26;18.80;99.90
14210;DHT22;7188;56.070;12.698;2022-08-02T07:51:52;19.00;99.90
14210;DHT22;7188;56.070;12.698;2022-08-02T07:54:18;19.10;99.90
14210;DHT22;7188;56.070;12.698;2022-08-02T07:56:43;19.20;99.90
14210;DHT22;7188;56.070;12.698;2022-08-02T07:59:09;19.30;99.90
14210;DHT22;7188;56.070;12.698;2022-08-02T08:01:35;19.20;99.90
14210;DHT22;7188;56.070;12.698;2022-08-02T08:04:03;19.10;99.90
14210;DHT22;7188;56.070;12.698;2022-08-02T08:06:29;19.00;99.90
14210;DHT22;7188;56.070;12.698;2022-08-02T08:08:55;18.90;99.90
14210;DHT22;7188;56.070;12.698;2022-08-02T08:11:21;18.90;99.90
14210;DHT22;7188;56.070;12.698;2022-08-02T08:13:47;18.80;99.90
14210;DHT22;7188;56.070;12.698;2022-08-02T08:16:13;18.70;99.90
14210;DHT22;7188;56.070;12.698;2022-08-02T08:18:38;18.80;99.90
14210;DHT22;7188;56.070;12.698;2022-08-02T08:21:04;18.90;99.90
14210;DHT22;7188;56.070;12.698;2022-08-02T08:23:30;19.00;99.90
14210;DHT22;7188;56.070;12.698;2022-08-02T08:25:56;19.00;99.90
14210;DHT22;7188;56.070;12.698;2022-08-02T08:28:22;19.10;99.90
14210;DHT22;7188;56.070;12.698;2022-08-02T08:30:48;19.10;99.90
14210;DHT22;7188;56.070;12.698;2022-08-02T08:33:14;19.10;99.90
14210;DHT22;7188;56.070;12.698;2022-08-02T08:35:40;19.20;99.90
14210;DHT22;7188;56.070;12.698;2022-08-02T08:38:06;19.20;99.90
14210;DHT22;7188;56.070;12.698;2022-08-02T08:40:33;19.10;99.90
14210;DHT22;7188;56.070;12.698;2022-08-02T08:42:59;19.20;99.90
14210;DHT22;7188;56.070;12.698;2022-08-02T08:45:25;19.30;99.90
14210;DHT22;7188;56.070;12.698;2022-08-02T08:47:55;19.40;99.90
14210;DHT22;7188;56.070;12.698;2022-08-02T08:50:24;19.50;99.90
14210;DHT22;7188;56.070;12.698;2022-08-02T08:53:01;19.70;99.90
14210;DHT22;7188;56.070;12.698;2022-08-02T08:55:29;19.70;99.90
14210;DHT22;7188;56.070;12.698;2022-08-02T08:57:57;19.80;99.90
14210;DHT22;7188;56.070;12.698;2022-08-02T09:00:23;19.80;99.90
14210;DHT22;7188;56.070;12.698;2022-08-02T09:02:49;19.90;99.90
14210;DHT22;7188;56.070;12.698;2022-08-02T09:05:16;19.90;99.90
14210;DHT22;7188;56.070;12.698;2022-08-02T09:07:46;20.10;99.90
14210;DHT22;7188;56.070;12.698;2022-08-02T09:10:32;20.10;99.90
14210;DHT22;7188;56.070;12.698;2022-08-02T09:13:25;20.20;99.90
14210;DHT22;7188;56.070;12.698;2022-08-02T09:16:04;20.10;99.90
14210;DHT22;7188;56.070;12.698;2022-08-02T09:18:35;20.10;99.90
14210;DHT22;7188;56.070;12.698;2022-08-02T09:21:03;20.20;99.90
14210;DHT22;7188;56.070;12.698;2022-08-02T09:23:38;20.20;99.90
14210;DHT22;7188;56.070;12.698;2022-08-02T09:26:09;20.30;99.90
14210;DHT22;7188;56.070;12.698;2022-08-02T09:28:38;20.40;99.90
14210;DHT22;7188;56.070;12.698;2022-08-02T09:31:05;20.50;99.90
14210;DHT22;7188;56.070;12.698;2022-08-02T09:33:31;20.60;99.90
14210;DHT22;7188;56.070;12.698;2022-08-02T09:36:11;20.60;99.90
14210;DHT22;7188;56.070;12.698;2022-08-02T09:38:39;20.60;99.90
14210;DHT22;7188;56.070;12.698;2022-08-02T09:41:19;20.60;99.90
14210;DHT22;7188;56.070;12.698;2022-08-02T09:43:45;20.70;99.90
14210;DHT22;7188;56.070;12.698;2022-08-02T09:46:16;20.70;99.90
14210;DHT22;7188;56.070;12.698;2022-08-02T09:48:53;20.70;99.90
14210;DHT22;7188;56.070;12.698;2022-08-02T09:51:28;20.70;99.90
14210;DHT22;7188;56.070;12.698;2022-08-02T09:53:55;20.80;99.90
14210;DHT22;7188;56.070;12.698;2022-08-02T09:56:23;20.80;99.90
14210;DHT22;7188;56.070;12.698;2022-08-02T09:58:50;20.90;99.90
14210;DHT22;7188;56.070;12.698;2022-08-02T10:01:18;20.90;99.90
14210;DHT22;7188;56.070;12.698;2022-08-02T10:03:57;21.00;99.90
14210;DHT22;7188;56.070;12.698;2022-08-02T10:06:25;21.10;99.90
14210;DHT22;7188;56.070;12.698;2022-08-02T10:08:51;21.20;99.90
14210;DHT22;7188;56.070;12.698;2022-08-02T10:11:19;21.30;99.90
14210;DHT22;7188;56.070;12.698;2022-08-02T10:13:46;21.30;99.90
14210;DHT22;7188;56.070;12.698;2022-08-02T10:16:17;21.40;99.90
14210;DHT22;7188;56.070;12.698;2022-08-02T10:18:44;21.40;99.90
14210;DHT22;7188;56.070;12.698;2022-08-02T10:21:17;21.40;99.90
14210;DHT22;7188;56.070;12.698;2022-08-02T10:23:45;21.50;99.90
14210;DHT22;7188;56.070;12.698;2022-08-02T10:26:17;21.60;99.90
14210;DHT22;7188;56.070;12.698;2022-08-02T10:28:46;21.60;99.90
14210;DHT22;7188;56.070;12.698;2022-08-02T10:31:17;21.70;99.90
14210;DHT22;7188;56.070;12.698;2022-08-02T10:33:48;21.90;99.90
14210;DHT22;7188;56.070;12.698;2022-08-02T10:36:18;21.80;99.90
14210;DHT22;7188;56.070;12.698;2022-08-02T10:38:44;21.70;99.90
14210;DHT22;7188;56.070;12.698;2022-08-02T10:41:10;21.70;99.90
14210;DHT22;7188;56.070;12.698;2022-08-02T10:43:41;21.70;99.90
14210;DHT22;7188;56.070;12.698;2022-08-02T10:49:15;21.90;99.90
14210;DHT22;7188;56.070;12.698;2022-08-02T10:56:57;22.30;99.90
14210;DHT22;7188;56.070;12.698;2022-08-02T10:59:34;22.40;99.90
14210;DHT22;7188;56.070;12.698;2022-08-02T11:02:32;22.50;99.90
14210;DHT22;7188;56.070;12.698;2022-08-02T11:05:04;22.50;99.90
14210;DHT22;7188;56.070;12.698;2022-08-02T11:07:45;22.50;99.90
14210;DHT22;7188;56.070;12.698;2022-08-02T11:10:37;22.40;99.90
14210;DHT22;7188;56.070;12.698;2022-08-02T11:15:29;22.60;99.90
14210;DHT22;7188;56.070;12.698;2022-08-02T11:17:58;22.70;99.90
14210;DHT22;7188;56.070;12.698;2022-08-02T11:20:25;22.70;99.90
14210;DHT22;7188;56.070;12.698;2022-08-02T11:22:52;22.60;99.90
14210;DHT22;7188;56.070;12.698;2022-08-02T11:28:07;22.70;99.90
14210;DHT22;7188;56.070;12.698;2022-08-02T11:30:34;22.50;99.90
14210;DHT22;7188;56.070;12.698;2022-08-02T11:33:00;22.40;99.90
14210;DHT22;7188;56.070;12.698;2022-08-02T11:35:37;22.50;99.90
14210;DHT22;7188;56.070;12.698;2022-08-02T11:38:19;22.70;99.90
14210;DHT22;7188;56.070;12.698;2022-08-02T11:40:47;22.80;99.90
14210;DHT22;7188;56.070;12.698;2022-08-02T11:43:23;22.80;99.90
14210;DHT22;7188;56.070;12.698;2022-08-02T11:45:51;22.80;99.90
14210;DHT22;7188;56.070;12.698;2022-08-02T11:48:39;22.80;99.90
14210;DHT22;7188;56.070;12.698;2022-08-02T11:51:10;22.70;99.90
14210;DHT22;7188;56.070;12.698;2022-08-02T11:53:43;22.70;99.90
14210;DHT22;7188;56.070;12.698;2022-08-02T11:56:09;22.70;99.90
14210;DHT22;7188;56.070;12.698;2022-08-02T11:58:36;22.70;99.90
14210;DHT22;7188;56.070;12.698;2022-08-02T12:01:02;22.70;99.90
14210;DHT22;7188;56.070;12.698;2022-08-02T12:03:38;22.80;99.90
14210;DHT22;7188;56.070;12.698;2022-08-02T12:06:05;22.80;99.90
14210;DHT22;7188;56.070;12.698;2022-08-02T12:08:36;23.00;99.90
14210;DHT22;7188;56.070;12.698;2022-08-02T12:11:02;23.20;99.90
14210;DHT22;7188;56.070;12.698;2022-08-02T12:13:43;23.10;99.90
14210;DHT22;7188;56.070;12.698;2022-08-02T12:16:10;23.20;99.90
14210;DHT22;7188;56.070;12.698;2022-08-02T12:18:55;23.20;99.90
14210;DHT22;7188;56.070;12.698;2022-08-02T12:21:39;23.10;99.90
14210;DHT22;7188;56.070;12.698;2022-08-02T12:24:05;23.10;99.90
14210;DHT22;7188;56.070;12.698;2022-08-02T12:26:43;23.20;99.90
14210;DHT22;7188;56.070;12.698;2022-08-02T12:29:09;23.20;99.90
14210;DHT22;7188;56.070;12.698;2022-08-02T12:31:44;23.30;99.90
14210;DHT22;7188;56.070;12.698;2022-08-02T12:34:21;23.30;99.90
14210;DHT22;7188;56.070;12.698;2022-08-02T12:37:07;23.40;99.90
14210;DHT22;7188;56.070;12.698;2022-08-02T12:39:37;23.60;99.90
14210;DHT22;7188;56.070;12.698;2022-08-02T12:42:05;23.70;99.90
14210;DHT22;7188;56.070;12.698;2022-08-02T12:44:54;23.80;99.90
14210;DHT22;7188;56.070;12.698;2022-08-02T12:47:20;23.70;99.90
14210;DHT22;7188;56.070;12.698;2022-08-02T12:50:10;23.80;99.90
14210;DHT22;7188;56.070;12.698;2022-08-02T12:52:35;23.80;99.90
14210;DHT22;7188;56.070;12.698;2022-08-02T12:55:19;23.70;99.90
14210;DHT22;7188;56.070;12.698;2022-08-02T12:57:52;23.70;99.90
14210;DHT22;7188;56.070;12.698;2022-08-02T13:00:26;23.60;99.90
14210;DHT22;7188;56.070;12.698;2022-08-02T13:03:06;23.60;99.90
14210;DHT22;7188;56.070;12.698;2022-08-02T13:05:34;23.60;99.90
14210;DHT22;7188;56.070;12.698;2022-08-02T13:08:01;23.40;99.90
14210;DHT22;7188;56.070;12.698;2022-08-02T13:10:27;23.30;99.90
14210;DHT22;7188;56.070;12.698;2022-08-02T13:12:53;23.30;99.90
14210;DHT22;7188;56.070;12.698;2022-08-02T13:15:24;23.10;99.90
14210;DHT22;7188;56.070;12.698;2022-08-02T13:17:50;23.10;99.90
14210;DHT22;7188;56.070;12.698;2022-08-02T13:20:16;22.90;99.90
14210;DHT22;7188;56.070;12.698;2022-08-02T13:22:42;22.80;99.90
14210;DHT22;7188;56.070;12.698;2022-08-02T13:25:08;22.70;99.90
14210;DHT22;7188;56.070;12.698;2022-08-02T13:27:35;22.70;99.90
14210;DHT22;7188;56.070;12.698;2022-08-02T13:30:01;22.70;99.90
14210;DHT22;7188;56.070;12.698;2022-08-02T13:32:28;22.70;99.90
14210;DHT22;7188;56.070;12.698;2022-08-02T13:34:57;22.70;99.90
14210;DHT22;7188;56.070;12.698;2022-08-02T13:37:24;22.70;99.90
14210;DHT22;7188;56.070;12.698;2022-08-02T13:39:49;22.50;99.90
14210;DHT22;7188;56.070;12.698;2022-08-02T13:42:15;22.50;99.90
14210;DHT22;7188;56.070;12.698;2022-08-02T13:44:41;22.50;99.90
14210;DHT22;7188;56.070;12.698;2022-08-02T13:47:07;22.50;99.90
14210;DHT22;7188;56.070;12.698;2022-08-02T13:49:36;22.50;99.90
14210;DHT22;7188;56.070;12.698;2022-08-02T13:52:02;22.40;99.90
14210;DHT22;7188;56.070;12.698;2022-08-02T13:54:28;22.40;99.90
14210;DHT22;7188;56.070;12.698;2022-08-02T13:56:54;22.40;99.90
14210;DHT22;7188;56.070;12.698;2022-08-02T13:59:19;22.40;99.90
14210;DHT22;7188;56.070;12.698;2022-08-02T14:01:45;22.40;99.90
14210;DHT22;7188;56.070;12.698;2022-08-02T14:04:11;22.30;99.90
14210;DHT22;7188;56.070;12.698;2022-08-02T14:06:36;22.40;99.90
14210;DHT22;7188;56.070;12.698;2022-08-02T14:09:02;22.40;99.90
14210;DHT22;7188;56.070;12.698;2022-08-02T14:11:28;22.30;99.90
14210;DHT22;7188;56.070;12.698;2022-08-02T14:13:55;22.20;99.90
14210;DHT22;7188;56.070;12.698;2022-08-02T14:16:21;22.20;99.90
14210;DHT22;7188;56.070;12.698;2022-08-02T14:18:47;22.00;99.90
14210;DHT22;7188;56.070;12.698;2022-08-02T14:21:12;21.90;99.90
14210;DHT22;7188;56.070;12.698;2022-08-02T14:23:38;21.80;99.90
14210;DHT22;7188;56.070;12.698;2022-08-02T14:26:04;21.80;99.90
14210;DHT22;7188;56.070;12.698;2022-08-02T14:28:34;21.80;99.90
14210;DHT22;7188;56.070;12.698;2022-08-02T14:31:00;21.60;99.90
14210;DHT22;7188;56.070;12.698;2022-08-02T14:33:26;21.40;99.90
14210;DHT22;7188;56.070;12.698;2022-08-02T14:35:51;21.30;99.90
14210;DHT22;7188;56.070;12.698;2022-08-02T14:38:17;21.30;99.90
14210;DHT22;7188;56.070;12.698;2022-08-02T14:40:45;21.30;99.90
14210;DHT22;7188;56.070;12.698;2022-08-02T14:43:10;21.20;99.90
14210;DHT22;7188;56.070;12.698;2022-08-02T14:45:56;21.10;99.90
14210;DHT22;7188;56.070;12.698;2022-08-02T14:48:22;21.00;99.90
14210;DHT22;7188;56.070;12.698;2022-08-02T14:50:48;20.90;99.90
14210;DHT22;7188;56.070;12.698;2022-08-02T14:53:13;20.90;99.90
14210;DHT22;7188;56.070;12.698;2022-08-02T14:55:40;20.80;99.90
14210;DHT22;7188;56.070;12.698;2022-08-02T14:58:06;20.70;99.90
14210;DHT22;7188;56.070;12.698;2022-08-02T15:00:32;20.70;99.90
14210;DHT22;7188;56.070;12.698;2022-08-02T15:02:57;20.60;99.90
14210;DHT22;7188;56.070;12.698;2022-08-02T15:05:23;20.60;99.90
14210;DHT22;7188;56.070;12.698;2022-08-02T15:07:49;20.50;99.90
14210;DHT22;7188;56.070;12.698;2022-08-02T15:10:14;20.50;99.90
14210;DHT22;7188;56.070;12.698;2022-08-02T15:12:40;20.50;99.90
14210;DHT22;7188;56.070;12.698;2022-08-02T15:15:06;20.50;99.90
14210;DHT22;7188;56.070;12.698;2022-08-02T15:17:32;20.50;99.90
14210;DHT22;7188;56.070;12.698;2022-08-02T15:19:57;20.60;99.90
14210;DHT22;7188;56.070;12.698;2022-08-02T15:22:23;20.50;99.90
14210;DHT22;7188;56.070;12.698;2022-08-02T15:24:49;20.50;99.90
14210;DHT22;7188;56.070;12.698;2022-08-02T15:27:15;20.50;99.90
14210;DHT22;7188;56.070;12.698;2022-08-02T15:29:42;20.50;99.90
14210;DHT22;7188;56.070;12.698;2022-08-02T15:32:08;20.40;99.90
14210;DHT22;7188;56.070;12.698;2022-08-02T15:34:35;20.30;99.90
14210;DHT22;7188;56.070;12.698;2022-08-02T15:37:01;20.30;99.90
14210;DHT22;7188;56.070;12.698;2022-08-02T15:39:27;20.20;99.90
14210;DHT22;7188;56.070;12.698;2022-08-02T15:41:52;20.10;99.90
14210;DHT22;7188;56.070;12.698;2022-08-02T15:44:18;20.10;99.90
14210;DHT22;7188;56.070;12.698;2022-08-02T15:46:44;20.10;99.90
14210;DHT22;7188;56.070;12.698;2022-08-02T15:49:09;20.00;99.90
14210;DHT22;7188;56.070;12.698;2022-08-02T15:51:35;20.00;99.90
14210;DHT22;7188;56.070;12.698;2022-08-02T15:54:01;19.90;99.90
14210;DHT22;7188;56.070;12.698;2022-08-02T15:56:26;19.80;99.90
14210;DHT22;7188;56.070;12.698;2022-08-02T15:58:52;19.80;99.90
14210;DHT22;7188;56.070;12.698;2022-08-02T16:01:18;19.80;99.90
14210;DHT22;7188;56.070;12.698;2022-08-02T16:03:43;19.70;99.90
14210;DHT22;7188;56.070;12.698;2022-08-02T16:06:09;19.70;99.90
14210;DHT22;7188;56.070;12.698;2022-08-02T16:08:35;19.70;99.90